createdAt,value
2019-03-15T00:00:34.642Z,78.21
2019-03-15T00:03:48.207Z,78.04
2019-03-15T00:07:01.850Z,78.31
2019-03-15T00:10:15.449Z,77.97
2019-03-15T00:13:28.916Z,78.05
2019-03-15T00:16:42.673Z,78.30
2019-03-15T00:19:56.502Z,78.49
2019-03-15T00:23:10.208Z,78.70
2019-03-15T00:26:23.690Z,78.27
2019-03-15T00:29:37.252Z,78.22
2019-03-15T00:32:51.038Z,77.88
2019-03-15T00:36:04.619Z,78.29
2019-03-15T00:39:18.083Z,78.04
2019-03-15T00:42:31.913Z,78.54
2019-03-15T00:45:45.383Z,77.91
2019-03-15T00:48:59.132Z,78.33
2019-03-15T00:52:12.967Z,78.85
2019-03-15T00:55:26.541Z,78.66
2019-03-15T00:58:39.996Z,78.73
2019-03-15T01:01:54.054Z,78.18
2019-03-15T01:05:07.806Z,78.00
2019-03-15T01:08:21.300Z,78.02
2019-03-15T01:11:34.737Z,77.77
2019-03-15T01:14:48.432Z,78.01
2019-03-15T01:18:02.221Z,78.05
2019-03-15T01:21:15.951Z,78.00
2019-03-15T01:24:29.703Z,78.33
2019-03-15T01:27:43.312Z,78.28
2019-03-15T01:30:56.787Z,77.86
2019-03-15T01:34:10.263Z,78.04
2019-03-15T01:37:24.064Z,77.75
2019-03-15T01:40:37.521Z,78.12
2019-03-15T01:43:50.997Z,78.40
2019-03-15T01:47:04.792Z,78.07
2019-03-15T01:50:18.298Z,78.65
2019-03-15T01:53:32.056Z,79.16
2019-03-15T01:56:45.537Z,79.32
2019-03-15T01:59:58.994Z,79.55
2019-03-15T02:03:13.562Z,79.97
2019-03-15T02:06:27.260Z,80.25
2019-03-15T02:09:40.729Z,80.78
2019-03-15T02:12:54.198Z,80.52
2019-03-15T02:16:08.765Z,80.45
2019-03-15T02:19:22.467Z,80.48
2019-03-15T02:22:36.826Z,81.11
2019-03-15T02:25:50.570Z,81.11
2019-03-15T02:29:04.153Z,81.14
2019-03-15T02:32:17.707Z,81.04
2019-03-15T02:35:31.179Z,81.46
2019-03-15T02:38:44.778Z,81.44
2019-03-15T02:41:58.996Z,81.59
2019-03-15T02:45:13.037Z,81.89
2019-03-15T02:48:26.503Z,81.73
2019-03-15T02:51:39.966Z,81.31
2019-03-15T02:54:54.652Z,81.26
2019-03-15T02:58:08.257Z,80.79
2019-03-15T03:01:22.086Z,80.71
2019-03-15T03:04:35.559Z,80.92
2019-03-15T03:07:49.012Z,80.84
2019-03-15T03:11:02.591Z,80.67
2019-03-15T03:14:16.063Z,80.12
2019-03-15T03:17:32.365Z,80.46
2019-03-15T03:20:48.191Z,80.52
2019-03-15T03:24:01.919Z,80.42
2019-03-15T03:27:15.380Z,79.96
2019-03-15T03:30:29.160Z,79.62
2019-03-15T03:33:42.917Z,80.17
2019-03-15T03:36:58.020Z,80.96
2019-03-15T03:40:11.994Z,80.70
2019-03-15T03:43:25.711Z,80.48
2019-03-15T03:46:39.169Z,80.35
2019-03-15T03:49:53.548Z,80.50
2019-03-15T03:53:07.259Z,80.11
2019-03-15T03:56:21.047Z,80.37
2019-03-15T03:59:34.781Z,80.39
2019-03-15T04:02:48.527Z,80.60
2019-03-15T04:06:02.732Z,80.30
2019-03-15T04:09:16.996Z,80.28
2019-03-15T04:12:30.469Z,80.70
2019-03-15T04:15:43.962Z,81.12
2019-03-15T04:18:57.415Z,80.90
2019-03-15T04:22:10.877Z,80.98
2019-03-15T04:25:24.349Z,80.93
2019-03-15T04:28:38.101Z,81.07
2019-03-15T04:31:51.869Z,80.95
2019-03-15T04:35:05.531Z,81.47
2019-03-15T04:38:19.257Z,81.14
2019-03-15T04:41:33.019Z,81.22
2019-03-15T04:44:46.776Z,81.01
2019-03-15T04:48:00.236Z,81.16
2019-03-15T04:51:13.708Z,80.91
2019-03-15T04:54:27.182Z,80.74
2019-03-15T04:57:40.642Z,81.21
2019-03-15T05:00:54.429Z,81.25
2019-03-15T05:04:07.894Z,81.79
2019-03-15T05:07:21.405Z,82.15
2019-03-15T05:10:34.879Z,82.91
2019-03-15T05:13:48.351Z,83.42
2019-03-15T05:17:02.387Z,84.19
2019-03-15T05:20:15.854Z,84.59
2019-03-15T05:23:29.307Z,84.14
2019-03-15T05:26:43.048Z,84.91
2019-03-15T05:29:56.518Z,84.48
2019-03-15T05:33:10.239Z,84.56
2019-03-15T05:36:24.005Z,84.77
2019-03-15T05:39:37.477Z,84.91
2019-03-15T05:42:50.960Z,85.25
2019-03-15T05:46:04.442Z,85.44
2019-03-15T05:49:17.871Z,85.58
2019-03-15T05:52:31.337Z,85.89
2019-03-15T05:55:45.070Z,86.35
2019-03-15T05:58:58.928Z,86.73
2019-03-15T06:02:12.763Z,86.69
2019-03-15T06:05:26.541Z,86.46
2019-03-15T06:08:40.015Z,86.71
2019-03-15T06:11:53.995Z,87.28
2019-03-15T06:15:07.875Z,87.40
2019-03-15T06:18:21.348Z,87.34
2019-03-15T06:21:34.828Z,87.68
2019-03-15T06:24:48.552Z,88.26
2019-03-15T06:28:02.686Z,88.64
2019-03-15T06:31:16.137Z,88.68
2019-03-15T06:34:29.979Z,88.84
2019-03-15T06:37:43.926Z,89.01
2019-03-15T06:40:57.696Z,89.04
2019-03-15T06:44:11.456Z,88.73
2019-03-15T06:47:25.027Z,88.83
2019-03-15T06:50:38.487Z,89.16
2019-03-15T06:53:52.064Z,89.49
2019-03-15T06:57:06.528Z,89.61
2019-03-15T07:00:20.512Z,89.54
2019-03-15T07:03:33.972Z,89.57
2019-03-15T07:06:47.731Z,89.20
2019-03-15T07:10:01.635Z,89.41
2019-03-15T07:13:15.654Z,89.76
2019-03-15T07:16:31.030Z,89.45
2019-03-15T07:19:44.501Z,89.96
2019-03-15T07:22:58.075Z,89.79
2019-03-15T07:26:11.793Z,89.99
2019-03-15T07:29:25.385Z,89.79
2019-03-15T07:32:39.273Z,90.22
2019-03-15T07:35:53.069Z,90.31
2019-03-15T07:39:26.877Z,90.11
2019-03-15T07:42:41.241Z,89.95
2019-03-15T07:45:55.285Z,89.81
2019-03-15T07:49:14.074Z,90.29
2019-03-15T07:52:29.112Z,90.02
2019-03-15T07:55:44.109Z,89.87
2019-03-15T07:58:59.508Z,89.88
2019-03-15T08:02:14.828Z,89.58
2019-03-15T08:05:31.683Z,89.58
2019-03-15T08:08:46.299Z,89.60
2019-03-15T08:12:01.392Z,89.74
2019-03-15T08:15:15.146Z,89.14
2019-03-15T08:18:28.604Z,88.94
2019-03-15T08:21:42.056Z,88.91
2019-03-15T08:24:55.519Z,88.91
2019-03-15T08:28:08.956Z,88.48
2019-03-15T08:31:23.428Z,88.28
2019-03-15T08:34:37.407Z,87.51
2019-03-15T08:37:51.219Z,88.65
2019-03-15T08:41:04.801Z,88.27
2019-03-15T08:44:18.287Z,88.40
2019-03-15T08:47:31.733Z,87.73
2019-03-15T08:50:45.506Z,87.66
2019-03-15T08:53:59.283Z,88.59
2019-03-15T08:57:12.963Z,88.10
2019-03-15T09:00:26.418Z,87.13
2019-03-15T09:03:40.139Z,87.70
2019-03-15T09:06:53.594Z,88.00
2019-03-15T09:10:21.366Z,88.21
2019-03-15T09:13:23.666Z,87.91
2019-03-15T09:16:37.117Z,88.67
2019-03-15T09:19:50.572Z,86.03
2019-03-15T09:23:04.146Z,84.94
2019-03-15T09:26:17.595Z,85.29
2019-03-15T09:29:31.040Z,85.25
2019-03-15T09:32:44.714Z,84.21
2019-03-15T09:35:58.171Z,83.96
2019-03-15T09:39:12.226Z,83.88
2019-03-15T09:42:25.704Z,83.49
2019-03-15T09:45:39.189Z,84.15
2019-03-15T09:48:52.955Z,84.63
2019-03-15T09:52:06.416Z,84.36
2019-03-15T09:55:32.302Z,83.98
2019-03-15T09:58:35.551Z,84.54
2019-03-15T10:01:49.007Z,82.18
2019-03-15T10:05:10.592Z,82.26
2019-03-15T10:08:18.343Z,81.75
2019-03-15T10:11:31.864Z,80.21
2019-03-15T10:14:45.311Z,80.31
2019-03-15T10:17:58.778Z,80.29
2019-03-15T10:21:12.497Z,79.91
2019-03-15T10:24:25.944Z,79.67
2019-03-15T10:27:39.505Z,78.49
2019-03-15T10:30:52.966Z,78.03
2019-03-15T10:34:06.586Z,78.39
2019-03-15T10:37:20.106Z,78.31
2019-03-15T10:40:33.562Z,77.56
2019-03-15T10:43:47.032Z,77.86
2019-03-15T10:47:00.767Z,76.85
2019-03-15T10:50:14.357Z,77.33
2019-03-15T10:53:27.815Z,76.71
2019-03-15T10:56:41.259Z,77.31
2019-03-15T10:59:54.978Z,77.91
2019-03-15T11:03:08.447Z,78.50
2019-03-15T11:06:21.911Z,78.54
2019-03-15T11:09:35.378Z,78.55
2019-03-15T11:12:49.263Z,79.03
2019-03-15T11:16:02.832Z,79.21
2019-03-15T11:19:16.293Z,79.09
2019-03-15T11:22:30.056Z,79.13
2019-03-15T11:25:43.510Z,79.78
2019-03-15T11:28:57.242Z,78.02
2019-03-15T11:32:10.700Z,76.81
2019-03-15T11:35:24.268Z,77.48
2019-03-15T11:38:37.726Z,76.49
2019-03-15T11:41:51.876Z,76.00
2019-03-15T11:45:06.599Z,76.55
2019-03-15T11:48:20.357Z,76.21
2019-03-15T11:51:34.109Z,75.51
2019-03-15T11:54:49.795Z,74.85
2019-03-15T11:58:03.131Z,73.95
2019-03-15T12:01:16.847Z,73.80
2019-03-15T12:04:30.618Z,73.20
2019-03-15T12:07:44.463Z,75.04
2019-03-15T12:10:57.906Z,75.08
2019-03-15T12:14:11.382Z,75.38
2019-03-15T12:17:24.848Z,75.62
2019-03-15T12:20:38.298Z,76.42
2019-03-15T12:23:51.868Z,76.63
2019-03-15T12:27:05.698Z,78.04
2019-03-15T12:30:19.602Z,78.65
2019-03-15T12:33:33.067Z,80.62
2019-03-15T12:36:47.066Z,81.38
2019-03-15T12:40:00.649Z,82.10
2019-03-15T12:43:14.231Z,81.25
2019-03-15T12:46:27.688Z,81.71
2019-03-15T12:49:41.424Z,79.31
2019-03-15T12:52:54.892Z,78.49
2019-03-15T12:56:10.912Z,78.53
2019-03-15T12:59:24.048Z,79.85
2019-03-15T13:02:37.777Z,80.26
2019-03-15T13:05:51.566Z,81.02
2019-03-15T13:09:05.955Z,82.79
2019-03-15T13:12:19.419Z,84.31
2019-03-15T13:15:32.871Z,84.76
2019-03-15T13:18:46.332Z,84.86
2019-03-15T13:21:59.795Z,85.43
2019-03-15T13:25:13.359Z,85.52
2019-03-15T13:28:27.060Z,85.76
2019-03-15T13:31:40.511Z,85.49
2019-03-15T13:34:53.966Z,85.01
2019-03-15T13:38:07.718Z,83.14
2019-03-15T13:41:21.188Z,83.98
2019-03-15T13:44:34.906Z,81.67
2019-03-15T13:47:48.354Z,80.81
2019-03-15T13:51:01.809Z,79.34
2019-03-15T13:54:15.281Z,78.23
2019-03-15T13:57:29.320Z,78.55
2019-03-15T14:00:42.883Z,78.19
2019-03-15T14:03:56.334Z,78.79
2019-03-15T14:07:10.068Z,78.55
2019-03-15T14:10:23.533Z,78.98
2019-03-15T14:13:36.990Z,78.60
2019-03-15T14:16:50.838Z,78.23
2019-03-15T14:20:05.054Z,78.01
2019-03-15T14:23:18.506Z,77.53
2019-03-15T14:26:32.299Z,76.70
2019-03-15T14:29:46.010Z,76.27
2019-03-15T14:32:59.469Z,76.24
2019-03-15T14:36:13.243Z,76.41
2019-03-15T14:39:27.069Z,76.41
2019-03-15T14:42:40.917Z,76.43
2019-03-15T14:45:54.859Z,76.95
2019-03-15T14:49:08.700Z,77.12
2019-03-15T14:52:22.455Z,77.00
2019-03-15T14:55:35.923Z,76.89
2019-03-15T14:58:49.690Z,77.38
2019-03-15T15:02:03.271Z,77.35
2019-03-15T15:05:16.833Z,77.72
2019-03-15T15:08:30.294Z,77.89
2019-03-15T15:11:43.877Z,78.08
2019-03-15T15:14:57.868Z,78.12
2019-03-15T15:18:11.355Z,78.13
2019-03-15T15:21:24.826Z,78.02
2019-03-15T15:24:38.860Z,78.18
2019-03-15T15:28:03.735Z,78.36
2019-03-15T15:31:07.689Z,78.57
2019-03-15T15:34:21.415Z,78.47
2019-03-15T15:37:35.120Z,79.25
2019-03-15T15:40:48.879Z,79.63
2019-03-15T15:44:02.600Z,79.60
2019-03-15T15:47:16.846Z,79.85
2019-03-15T15:50:30.473Z,79.91
2019-03-15T15:53:43.959Z,79.74
2019-03-15T15:56:58.192Z,80.55
2019-03-15T16:00:12.228Z,80.67
2019-03-15T16:03:25.692Z,80.75
2019-03-15T16:06:39.280Z,80.19
2019-03-15T16:09:52.877Z,80.57
2019-03-15T16:13:16.641Z,80.88
2019-03-15T16:16:22.552Z,80.45
2019-03-15T16:19:36.051Z,80.63
2019-03-15T16:22:50.282Z,80.24
2019-03-15T16:26:03.748Z,79.96
2019-03-15T16:29:17.217Z,79.81
2019-03-15T16:32:31.176Z,79.76
2019-03-15T16:35:44.744Z,79.51
2019-03-15T16:38:58.479Z,79.31
2019-03-15T16:42:12.501Z,79.16
2019-03-15T16:45:26.096Z,79.41
2019-03-15T16:48:40.215Z,79.64
2019-03-15T16:51:54.000Z,79.95
2019-03-15T16:55:08.738Z,79.72
2019-03-15T16:58:22.291Z,79.74
2019-03-15T17:01:35.843Z,80.17
2019-03-15T17:04:49.311Z,80.18
2019-03-15T17:08:03.395Z,80.72
2019-03-15T17:11:17.444Z,81.17
2019-03-15T17:14:31.139Z,81.41
2019-03-15T17:17:44.608Z,81.77
2019-03-15T17:20:58.061Z,82.07
2019-03-15T17:24:11.807Z,82.27
2019-03-15T17:27:25.255Z,82.60
2019-03-15T17:30:38.837Z,82.50
2019-03-15T17:33:52.324Z,82.57
2019-03-15T17:37:07.077Z,82.43
2019-03-15T17:40:20.910Z,82.80
2019-03-15T17:43:34.379Z,82.85
2019-03-15T17:46:48.391Z,82.63
2019-03-15T17:50:02.286Z,82.34
2019-03-15T17:53:15.916Z,82.04
2019-03-15T17:56:29.374Z,82.23
2019-03-15T18:00:03.278Z,82.07
2019-03-15T18:03:21.319Z,82.15
2019-03-15T18:06:32.620Z,81.92
2019-03-15T18:09:46.085Z,81.87
2019-03-15T18:13:00.085Z,82.08
2019-03-15T18:16:13.542Z,81.92
2019-03-15T18:19:27.016Z,82.06
2019-03-15T18:22:40.474Z,81.67
2019-03-15T18:25:54.052Z,81.77
2019-03-15T18:29:07.604Z,81.46
2019-03-15T18:32:21.474Z,81.16
2019-03-15T18:35:35.224Z,81.29
2019-03-15T18:38:48.686Z,81.42
2019-03-15T18:42:02.170Z,81.44
2019-03-15T18:45:16.030Z,81.47
2019-03-15T18:48:29.464Z,81.71
2019-03-15T18:51:43.030Z,81.47
2019-03-15T18:54:56.510Z,81.83
2019-03-15T18:58:09.968Z,82.45
2019-03-15T19:01:23.693Z,82.35
2019-03-15T19:04:37.137Z,83.40
2019-03-15T19:07:50.596Z,83.57
2019-03-15T19:11:04.159Z,84.13
2019-03-15T19:14:17.644Z,84.33
2019-03-15T19:17:31.563Z,84.39
2019-03-15T19:20:45.374Z,84.88
2019-03-15T19:23:59.177Z,84.85
2019-03-15T19:27:13.020Z,85.19
2019-03-15T19:30:26.455Z,85.28
2019-03-15T19:33:39.986Z,85.60
2019-03-15T19:36:53.658Z,86.00
2019-03-15T19:40:08.851Z,85.99
2019-03-15T19:43:22.640Z,86.04
2019-03-15T19:46:36.160Z,86.09
2019-03-15T19:49:49.614Z,86.23
2019-03-15T19:53:03.358Z,86.33
2019-03-15T19:56:17.142Z,86.32
2019-03-15T19:59:30.592Z,86.46
2019-03-15T20:02:44.170Z,86.41
2019-03-15T20:05:57.935Z,86.77
2019-03-15T20:09:11.401Z,86.66
2019-03-15T20:12:25.243Z,87.30
2019-03-15T20:15:38.693Z,87.23
2019-03-15T20:18:52.186Z,86.97
2019-03-15T20:22:05.991Z,86.79
2019-03-15T20:25:19.742Z,86.87
2019-03-15T20:28:33.205Z,87.13
2019-03-15T20:31:46.923Z,86.72
2019-03-15T20:35:00.671Z,87.07
2019-03-15T20:38:14.140Z,87.01
2019-03-15T20:41:27.867Z,87.40
2019-03-15T20:44:41.329Z,87.29
2019-03-15T20:47:54.791Z,86.97
2019-03-15T20:51:08.262Z,87.30
2019-03-15T20:54:21.784Z,87.23
2019-03-15T20:57:35.743Z,86.76
2019-03-15T21:00:49.286Z,86.24
2019-03-15T21:04:02.873Z,86.62
2019-03-15T21:07:16.651Z,86.59
2019-03-15T21:10:30.526Z,86.76
2019-03-15T21:13:44.184Z,86.09
2019-03-15T21:16:58.235Z,85.92
2019-03-15T21:20:12.115Z,85.51
2019-03-15T21:23:25.582Z,85.81
2019-03-15T21:26:39.036Z,85.73
2019-03-15T21:29:52.599Z,85.46
2019-03-15T21:33:06.165Z,85.81
2019-03-15T21:36:19.630Z,85.86
2019-03-15T21:39:33.213Z,85.90
2019-03-15T21:42:46.799Z,85.56
2019-03-15T21:46:00.253Z,85.68
2019-03-15T21:49:13.711Z,85.12
2019-03-15T21:52:27.494Z,85.04
2019-03-15T21:55:41.240Z,84.71
2019-03-15T21:58:54.721Z,84.80
2019-03-15T22:02:08.167Z,84.97
2019-03-15T22:05:21.880Z,84.90
2019-03-15T22:08:35.350Z,85.07
2019-03-15T22:11:48.801Z,84.84
2019-03-15T22:15:02.694Z,84.71
2019-03-15T22:18:16.376Z,84.46
2019-03-15T22:21:29.840Z,84.33
2019-03-15T22:24:43.704Z,84.16
2019-03-15T22:27:57.265Z,84.00
2019-03-15T22:31:16.484Z,84.06
2019-03-15T22:34:26.370Z,83.77
2019-03-15T22:37:40.195Z,83.74
2019-03-15T22:40:53.755Z,83.49
2019-03-15T22:44:07.234Z,83.00
2019-03-15T22:47:20.928Z,83.42
2019-03-15T22:50:34.390Z,83.47
2019-03-15T22:53:47.841Z,83.49
2019-03-15T22:57:01.578Z,83.57
2019-03-15T23:00:15.358Z,83.57
2019-03-15T23:03:28.995Z,83.61
2019-03-15T23:06:42.459Z,83.84
2019-03-15T23:09:55.905Z,83.73
2019-03-15T23:13:09.615Z,83.51
2019-03-15T23:16:23.092Z,83.45
2019-03-15T23:19:36.818Z,83.28
2019-03-15T23:22:50.575Z,83.29
2019-03-15T23:26:04.302Z,83.28
2019-03-15T23:29:17.778Z,83.02
2019-03-15T23:32:31.236Z,83.17
2019-03-15T23:35:53.955Z,82.75
2019-03-15T23:39:00.050Z,82.82
2019-03-15T23:42:13.859Z,82.81
2019-03-15T23:45:27.313Z,82.43
2019-03-15T23:48:41.079Z,82.10
2019-03-15T23:51:54.530Z,82.50
2019-03-15T23:55:08.181Z,82.31
2019-03-15T23:58:21.874Z,82.36
